createdAt,value
2018-02-13T00:00:24.971Z,10.27
2018-02-13T00:02:52.524Z,10.40
2018-02-13T00:05:20.084Z,10.67
2018-02-13T00:07:47.703Z,10.67
2018-02-13T00:10:15.244Z,11.53
2018-02-13T00:12:42.763Z,12.27
2018-02-13T00:15:10.307Z,11.43
2018-02-13T00:17:37.857Z,11.33
2018-02-13T00:20:05.448Z,12.73
2018-02-13T00:22:44.810Z,12.13
2018-02-13T00:25:12.364Z,12.30
2018-02-13T00:27:39.922Z,12.10
2018-02-13T00:30:07.467Z,12.37
2018-02-13T00:32:35.013Z,12.63
2018-02-13T00:35:02.564Z,13.63
2018-02-13T00:37:30.121Z,11.87
2018-02-13T00:39:57.801Z,14.67
2018-02-13T00:42:25.380Z,12.47
2018-02-13T00:44:52.934Z,14.17
2018-02-13T00:47:20.477Z,12.50
2018-02-13T00:49:47.995Z,14.17
2018-02-13T00:52:15.655Z,15.60
2018-02-13T00:54:43.180Z,13.70
2018-02-13T00:57:11.266Z,12.50
2018-02-13T00:59:38.888Z,14.30
2018-02-13T01:02:06.414Z,13.30
2018-02-13T01:04:34.053Z,13.23
2018-02-13T01:07:01.579Z,13.93
2018-02-13T01:09:29.148Z,13.13
2018-02-13T01:11:56.751Z,13.73
2018-02-13T01:14:24.330Z,15.97
2018-02-13T01:16:51.852Z,13.10
2018-02-13T01:19:19.380Z,12.80
2018-02-13T01:21:47.286Z,15.27
2018-02-13T01:24:14.842Z,14.90
2018-02-13T01:26:42.398Z,15.27
2018-02-13T01:29:10.263Z,15.90
2018-02-13T01:31:37.803Z,14.90
2018-02-13T01:34:05.375Z,15.50
2018-02-13T01:36:32.950Z,15.90
2018-02-13T01:39:00.509Z,15.63
2018-02-13T01:41:28.052Z,14.13
2018-02-13T01:43:55.608Z,15.43
2018-02-13T01:46:23.164Z,15.27
2018-02-13T01:48:50.776Z,15.93
2018-02-13T01:51:18.297Z,16.47
2018-02-13T01:53:45.829Z,16.57
2018-02-13T01:56:13.386Z,18.27
2018-02-13T01:58:40.900Z,17.37
2018-02-13T02:01:08.502Z,14.90
2018-02-13T02:03:36.043Z,15.43
2018-02-13T02:06:03.564Z,16.70
2018-02-13T02:08:31.128Z,17.07
2018-02-13T02:10:58.684Z,15.33
2018-02-13T02:13:26.231Z,17.30
2018-02-13T02:15:53.813Z,15.50
2018-02-13T02:18:21.349Z,16.90
2018-02-13T02:20:48.968Z,15.57
2018-02-13T02:23:16.504Z,17.53
2018-02-13T02:25:44.153Z,16.30
2018-02-13T02:28:11.741Z,17.40
2018-02-13T02:30:39.311Z,17.43
2018-02-13T02:33:06.842Z,16.07
2018-02-13T02:35:34.400Z,15.90
2018-02-13T02:38:02.011Z,17.30
2018-02-13T02:40:29.574Z,16.50
2018-02-13T02:43:06.188Z,15.57
2018-02-13T02:45:33.755Z,17.50
2018-02-13T02:48:01.277Z,16.60
2018-02-13T02:50:28.848Z,15.37
2018-02-13T02:52:56.397Z,16.07
2018-02-13T02:55:23.993Z,18.23
2018-02-13T02:57:51.645Z,15.17
2018-02-13T03:00:19.208Z,16.37
2018-02-13T03:02:46.726Z,15.70
2018-02-13T03:05:14.280Z,15.63
2018-02-13T03:07:41.816Z,15.50
2018-02-13T03:10:09.411Z,15.50
2018-02-13T03:12:36.927Z,15.80
2018-02-13T03:15:04.465Z,15.80
2018-02-13T03:17:32.457Z,15.60
2018-02-13T03:20:00.063Z,16.07
2018-02-13T03:22:27.601Z,15.80
2018-02-13T03:24:55.153Z,15.40
2018-02-13T03:27:22.694Z,14.40
2018-02-13T03:29:50.257Z,15.40
2018-02-13T03:32:17.776Z,15.10
2018-02-13T03:34:45.344Z,16.60
2018-02-13T03:37:12.951Z,15.63
2018-02-13T03:39:40.464Z,15.10
2018-02-13T03:42:08.031Z,16.40
2018-02-13T03:44:35.556Z,16.03
2018-02-13T03:47:03.541Z,17.10
2018-02-13T03:49:31.059Z,16.67
2018-02-13T03:51:58.611Z,16.30
2018-02-13T03:54:26.177Z,14.20
2018-02-13T03:56:53.696Z,16.30
2018-02-13T03:59:21.264Z,14.70
2018-02-13T04:01:48.926Z,16.00
2018-02-13T04:04:16.479Z,15.00
2018-02-13T04:06:44.058Z,13.87
2018-02-13T04:09:11.598Z,16.37
2018-02-13T04:11:39.190Z,15.33
2018-02-13T04:14:06.719Z,15.93
2018-02-13T04:16:34.237Z,15.17
2018-02-13T04:19:03.738Z,15.93
2018-02-13T04:21:31.255Z,15.53
2018-02-13T04:23:58.775Z,14.60
2018-02-13T04:26:26.373Z,12.50
2018-02-13T04:28:53.896Z,15.40
2018-02-13T04:31:21.477Z,15.30
2018-02-13T04:33:49.048Z,14.03
2018-02-13T04:36:16.588Z,15.10
2018-02-13T04:38:44.135Z,14.93
2018-02-13T04:41:11.679Z,15.57
2018-02-13T04:43:39.651Z,17.03
2018-02-13T04:46:07.230Z,14.77
2018-02-13T04:48:34.751Z,14.50
2018-02-13T04:51:02.322Z,15.20
2018-02-13T04:53:30.229Z,14.13
2018-02-13T04:55:57.748Z,14.67
2018-02-13T04:58:25.300Z,15.43
2018-02-13T05:00:52.890Z,15.40
2018-02-13T05:03:20.434Z,13.40
2018-02-13T05:05:48.025Z,13.90
2018-02-13T05:08:15.574Z,13.30
2018-02-13T05:10:43.169Z,13.97
2018-02-13T05:13:10.734Z,13.47
2018-02-13T05:15:38.721Z,14.10
2018-02-13T05:18:06.264Z,14.30
2018-02-13T05:20:34.595Z,13.73
2018-02-13T05:23:02.147Z,14.63
2018-02-13T05:25:29.751Z,13.80
2018-02-13T05:27:57.316Z,13.33
2018-02-13T05:30:24.861Z,13.47
2018-02-13T05:32:52.442Z,15.20
2018-02-13T05:35:20.009Z,14.47
2018-02-13T05:37:47.980Z,14.83
2018-02-13T05:40:15.563Z,13.60
2018-02-13T05:42:43.275Z,14.23
2018-02-13T05:45:10.809Z,14.07
2018-02-13T05:47:38.388Z,13.73
2018-02-13T05:50:05.926Z,13.60
2018-02-13T05:52:33.470Z,14.63
2018-02-13T05:55:01.040Z,14.20
2018-02-13T05:57:28.567Z,15.40
2018-02-13T05:59:56.129Z,15.03
2018-02-13T06:02:23.675Z,15.67
2018-02-13T06:04:51.229Z,14.00
2018-02-13T06:07:18.770Z,13.90
2018-02-13T06:09:46.313Z,13.17
2018-02-13T06:12:13.875Z,13.40
2018-02-13T06:14:41.471Z,12.53
2018-02-13T06:17:08.996Z,14.67
2018-02-13T06:19:36.607Z,13.13
2018-02-13T06:22:04.176Z,13.47
2018-02-13T06:24:31.725Z,13.97
2018-02-13T06:26:59.273Z,14.70
2018-02-13T06:29:27.020Z,13.83
2018-02-13T06:31:54.543Z,14.03
2018-02-13T06:34:22.086Z,13.47
2018-02-13T06:36:50.055Z,14.83
2018-02-13T06:39:17.582Z,14.27
2018-02-13T06:41:45.121Z,13.37
2018-02-13T06:44:12.704Z,13.47
2018-02-13T06:46:40.227Z,12.83
2018-02-13T06:49:07.771Z,10.70
2018-02-13T06:51:35.344Z,11.40
2018-02-13T06:54:02.902Z,12.70
2018-02-13T06:56:30.467Z,11.87
2018-02-13T06:58:57.996Z,11.33
2018-02-13T07:01:25.635Z,12.90
2018-02-13T07:03:53.191Z,13.50
2018-02-13T07:06:20.756Z,12.73
2018-02-13T07:08:48.308Z,11.73
2018-02-13T07:11:15.884Z,11.40
2018-02-13T07:13:43.457Z,12.50
2018-02-13T07:16:10.975Z,11.93
2018-02-13T07:18:38.586Z,11.63
2018-02-13T07:21:06.145Z,11.60
2018-02-13T07:23:33.697Z,10.03
2018-02-13T07:26:01.286Z,13.03
2018-02-13T07:28:28.829Z,11.40
2018-02-13T07:30:56.409Z,12.37
2018-02-13T07:33:23.947Z,11.30
2018-02-13T07:35:51.528Z,10.60
2018-02-13T07:38:19.087Z,11.20
2018-02-13T07:40:46.649Z,11.67
2018-02-13T07:43:14.204Z,10.17
2018-02-13T07:45:41.813Z,11.77
2018-02-13T07:48:09.385Z,11.37
2018-02-13T07:50:36.941Z,10.10
2018-02-13T07:53:04.920Z,11.53
2018-02-13T07:55:32.434Z,10.17
2018-02-13T07:57:59.954Z,9.53
2018-02-13T08:00:27.557Z,10.60
2018-02-13T08:02:55.087Z,10.60
2018-02-13T08:05:22.645Z,10.30
2018-02-13T08:07:50.164Z,9.87
2018-02-13T08:10:17.727Z,10.77
2018-02-13T08:12:45.642Z,10.47
2018-02-13T08:15:13.183Z,8.70
2018-02-13T08:17:40.703Z,8.77
2018-02-13T08:20:08.267Z,8.67
2018-02-13T08:22:35.836Z,7.50
2018-02-13T08:25:03.408Z,8.70
2018-02-13T08:27:30.956Z,9.43
2018-02-13T08:29:58.487Z,6.90
2018-02-13T08:32:26.376Z,7.57
2018-02-13T08:34:53.907Z,6.33
2018-02-13T08:37:21.443Z,7.97
2018-02-13T08:39:49.028Z,7.20
2018-02-13T08:42:16.582Z,7.40
2018-02-13T08:44:44.175Z,6.80
2018-02-13T08:47:11.699Z,6.37
2018-02-13T08:49:39.233Z,6.93
2018-02-13T08:52:06.831Z,7.27
2018-02-13T08:54:34.347Z,5.70
2018-02-13T08:57:01.960Z,7.00
2018-02-13T08:59:29.488Z,6.50
2018-02-13T09:01:57.054Z,6.33
2018-02-13T09:04:24.619Z,6.10
2018-02-13T09:06:52.178Z,5.33
2018-02-13T09:09:19.746Z,5.53
2018-02-13T09:11:47.256Z,5.70
2018-02-13T09:14:14.831Z,6.53
2018-02-13T09:16:43.176Z,5.27
2018-02-13T09:19:10.724Z,6.17
2018-02-13T09:21:38.277Z,7.30
2018-02-13T09:24:05.815Z,7.53
2018-02-13T09:26:33.703Z,7.00
2018-02-13T09:29:02.140Z,5.73
2018-02-13T09:31:29.666Z,5.97
2018-02-13T09:33:58.151Z,5.20
2018-02-13T09:36:25.689Z,6.07
2018-02-13T09:38:53.452Z,5.20
2018-02-13T09:41:20.987Z,5.50
2018-02-13T09:43:48.525Z,4.67
2018-02-13T09:46:16.119Z,5.53
2018-02-13T09:48:43.674Z,5.97
2018-02-13T09:51:11.219Z,5.03
2018-02-13T09:53:38.822Z,6.40
2018-02-13T09:56:06.347Z,5.80
2018-02-13T09:58:33.880Z,5.70
2018-02-13T10:01:01.480Z,5.37
2018-02-13T10:03:29.102Z,4.77
2018-02-13T10:05:56.611Z,5.63
2018-02-13T10:08:24.626Z,6.30
2018-02-13T10:10:52.176Z,5.80
2018-02-13T10:13:19.731Z,5.80
2018-02-13T10:15:47.354Z,5.67
2018-02-13T10:18:14.882Z,5.93
2018-02-13T10:20:42.425Z,4.97
2018-02-13T10:23:10.067Z,4.77
2018-02-13T10:25:37.641Z,5.47
2018-02-13T10:28:05.192Z,5.27
2018-02-13T10:30:32.733Z,4.80
2018-02-13T10:33:00.335Z,5.87
2018-02-13T10:35:28.429Z,5.07
2018-02-13T10:37:55.967Z,5.60
2018-02-13T10:40:23.527Z,5.03
2018-02-13T10:42:51.060Z,5.37
2018-02-13T10:45:18.600Z,6.07
2018-02-13T10:47:46.159Z,5.00
2018-02-13T10:50:13.757Z,4.50
2018-02-13T10:52:41.310Z,5.87
2018-02-13T10:55:08.861Z,5.80
2018-02-13T10:57:36.423Z,5.27
2018-02-13T11:00:03.993Z,5.00
2018-02-13T11:02:31.529Z,4.27
2018-02-13T11:04:59.084Z,5.03
2018-02-13T11:07:26.611Z,4.40
2018-02-13T11:09:54.148Z,4.20
2018-02-13T11:12:21.664Z,5.20
2018-02-13T11:14:49.242Z,6.70
2018-02-13T11:17:16.827Z,6.37
2018-02-13T11:19:44.372Z,5.90
2018-02-13T11:22:11.962Z,4.60
2018-02-13T11:24:39.481Z,4.23
2018-02-13T11:27:07.002Z,5.97
2018-02-13T11:29:34.586Z,5.00
2018-02-13T11:32:02.131Z,8.93
2018-02-13T11:34:29.695Z,4.77
2018-02-13T11:36:57.264Z,4.60
2018-02-13T11:39:24.796Z,5.27
2018-02-13T11:41:52.325Z,5.37
2018-02-13T11:44:19.878Z,5.13
2018-02-13T11:46:47.460Z,4.27
2018-02-13T11:49:15.043Z,4.10
2018-02-13T11:51:42.589Z,4.93
2018-02-13T11:54:11.767Z,4.67
2018-02-13T11:56:39.327Z,5.63
2018-02-13T11:59:06.848Z,4.37
2018-02-13T12:01:34.411Z,5.20
2018-02-13T12:04:01.940Z,4.70
2018-02-13T12:06:29.505Z,4.60
2018-02-13T12:08:57.020Z,4.97
2018-02-13T12:11:24.551Z,5.33
2018-02-13T12:13:52.876Z,4.70
2018-02-13T12:16:20.384Z,4.23
2018-02-13T12:18:47.900Z,4.97
2018-02-13T12:21:15.960Z,4.93
2018-02-13T12:23:43.475Z,5.00
2018-02-13T12:26:11.983Z,6.30
2018-02-13T12:28:39.554Z,4.30
2018-02-13T12:31:07.060Z,4.10
2018-02-13T12:33:34.629Z,5.27
2018-02-13T12:36:02.220Z,5.33
2018-02-13T12:38:29.732Z,5.13
2018-02-13T12:40:57.282Z,4.70
2018-02-13T12:43:24.868Z,4.73
2018-02-13T12:45:52.385Z,4.83
2018-02-13T12:48:19.920Z,4.90
2018-02-13T12:50:47.866Z,4.40
2018-02-13T12:53:16.320Z,3.37
2018-02-13T12:55:43.846Z,3.97
2018-02-13T12:58:11.415Z,4.77
2018-02-13T13:00:39.921Z,4.30
2018-02-13T13:03:07.441Z,4.17
2018-02-13T13:05:34.981Z,5.03
2018-02-13T13:08:02.564Z,3.43
2018-02-13T13:10:30.118Z,4.13
2018-02-13T13:12:57.631Z,4.50
2018-02-13T13:15:25.200Z,4.57
2018-02-13T13:17:52.734Z,4.00
2018-02-13T13:20:20.266Z,4.13
2018-02-13T13:22:47.861Z,3.73
2018-02-13T13:25:16.463Z,4.60
2018-02-13T13:27:44.010Z,3.30
2018-02-13T13:30:11.694Z,3.80
2018-02-13T13:32:39.221Z,3.87
2018-02-13T13:35:06.771Z,3.10
2018-02-13T13:37:34.376Z,3.40
2018-02-13T13:40:01.938Z,3.47
2018-02-13T13:42:29.586Z,2.93
2018-02-13T13:44:57.159Z,3.57
2018-02-13T13:47:25.678Z,3.10
2018-02-13T13:49:53.216Z,4.20
2018-02-13T13:52:20.756Z,4.27
2018-02-13T13:54:48.321Z,3.00
2018-02-13T13:57:15.844Z,3.27
2018-02-13T13:59:43.418Z,2.90
2018-02-13T14:02:10.943Z,3.03
2018-02-13T14:04:38.451Z,3.73
2018-02-13T14:07:06.067Z,3.20
2018-02-13T14:09:33.594Z,3.43
2018-02-13T14:12:01.165Z,3.67
2018-02-13T14:14:28.752Z,2.90
2018-02-13T14:16:58.182Z,3.60
2018-02-13T14:19:26.202Z,3.93
2018-02-13T14:21:53.724Z,4.27
2018-02-13T14:24:21.259Z,4.50
2018-02-13T14:26:48.896Z,4.13
2018-02-13T14:29:16.424Z,4.07
2018-02-13T14:31:43.980Z,4.20
2018-02-13T14:34:11.941Z,3.47
2018-02-13T14:36:39.514Z,3.60
2018-02-13T14:39:07.040Z,3.20
2018-02-13T14:41:34.598Z,2.90
2018-02-13T14:44:02.124Z,3.90
2018-02-13T14:46:29.683Z,3.40
2018-02-13T14:48:57.215Z,3.03
2018-02-13T14:51:24.815Z,3.13
2018-02-13T14:53:52.361Z,3.33
2018-02-13T14:56:19.912Z,3.43
2018-02-13T14:58:48.499Z,3.90
2018-02-13T15:01:17.772Z,3.17
2018-02-13T15:03:45.344Z,3.03
2018-02-13T15:06:12.891Z,2.97
2018-02-13T15:08:40.409Z,3.90
2018-02-13T15:11:08.372Z,4.17
2018-02-13T15:13:35.901Z,4.00
2018-02-13T15:16:03.440Z,3.83
2018-02-13T15:18:31.017Z,3.67
2018-02-13T15:20:58.551Z,3.90
2018-02-13T15:23:26.130Z,3.60
2018-02-13T15:25:53.663Z,3.57
2018-02-13T15:28:21.190Z,4.40
2018-02-13T15:30:48.777Z,4.20
2018-02-13T15:33:16.319Z,4.70
2018-02-13T15:35:43.850Z,3.63
2018-02-13T15:38:11.779Z,3.10
2018-02-13T15:40:39.328Z,3.67
2018-02-13T15:43:06.861Z,3.83
2018-02-13T15:45:34.442Z,3.40
2018-02-13T15:48:01.983Z,3.53
2018-02-13T15:50:29.537Z,4.00
2018-02-13T15:52:57.654Z,3.00
2018-02-13T15:55:25.291Z,3.23
2018-02-13T15:57:52.803Z,3.33
2018-02-13T16:00:20.363Z,3.93
2018-02-13T16:02:47.894Z,3.90
2018-02-13T16:05:15.483Z,3.30
2018-02-13T16:07:43.009Z,3.90
2018-02-13T16:10:10.533Z,4.50
2018-02-13T16:12:38.076Z,4.60
2018-02-13T16:15:05.634Z,5.40
2018-02-13T16:17:33.186Z,5.17
2018-02-13T16:20:00.744Z,5.07
2018-02-13T16:22:28.267Z,5.97
2018-02-13T16:24:56.299Z,6.30
2018-02-13T16:27:23.830Z,6.07
2018-02-13T16:29:51.414Z,6.83
2018-02-13T16:32:18.988Z,12.73
2018-02-13T16:34:46.509Z,5.77
2018-02-13T16:37:14.032Z,7.87
2018-02-13T16:39:41.564Z,6.63
2018-02-13T16:42:09.113Z,12.60
2018-02-13T16:44:36.645Z,20.07
2018-02-13T16:47:04.217Z,7.07
2018-02-13T16:49:31.772Z,20.00
2018-02-13T16:51:59.314Z,21.50
2018-02-13T16:54:26.914Z,10.43
2018-02-13T16:56:54.498Z,33.70
2018-02-13T16:59:22.037Z,11.70
2018-02-13T17:01:49.599Z,24.33
2018-02-13T17:04:17.215Z,14.83
2018-02-13T17:06:44.752Z,6.30
2018-02-13T17:09:12.323Z,11.93
2018-02-13T17:11:39.880Z,7.20
2018-02-13T17:14:07.412Z,9.00
2018-02-13T17:16:34.928Z,6.07
2018-02-13T17:19:02.537Z,6.40
2018-02-13T17:21:30.051Z,5.90
2018-02-13T17:23:57.630Z,6.27
2018-02-13T17:26:25.158Z,6.30
2018-02-13T17:28:52.743Z,6.73
2018-02-13T17:31:20.330Z,7.13
2018-02-13T17:33:47.996Z,7.00
2018-02-13T17:36:15.660Z,7.40
2018-02-13T17:38:43.179Z,6.90
2018-02-13T17:41:10.750Z,6.30
2018-02-13T17:43:39.153Z,6.30
2018-02-13T17:46:06.680Z,6.13
2018-02-13T17:48:34.386Z,6.30
2018-02-13T17:51:02.392Z,5.60
2018-02-13T17:53:29.911Z,6.50
2018-02-13T17:55:57.449Z,5.87
2018-02-13T17:58:25.011Z,6.47
2018-02-13T18:00:52.532Z,6.43
2018-02-13T18:03:20.070Z,5.33
2018-02-13T18:05:47.583Z,6.50
2018-02-13T18:08:15.173Z,6.63
2018-02-13T18:10:42.718Z,7.13
2018-02-13T18:13:10.270Z,6.30
2018-02-13T18:15:37.836Z,6.80
2018-02-13T18:18:05.401Z,7.03
2018-02-13T18:20:32.953Z,10.70
2018-02-13T18:23:00.464Z,6.03
2018-02-13T18:25:28.028Z,6.93
2018-02-13T18:27:55.640Z,6.40
2018-02-13T18:30:23.176Z,6.80
2018-02-13T18:32:50.706Z,6.10
2018-02-13T18:35:18.292Z,6.10
2018-02-13T18:37:45.841Z,6.10
2018-02-13T18:40:13.384Z,6.50
2018-02-13T18:42:40.947Z,6.83
2018-02-13T18:45:08.464Z,9.40
2018-02-13T18:47:36.040Z,8.00
2018-02-13T18:50:03.552Z,7.00
2018-02-13T18:54:58.619Z,6.20
2018-02-13T18:57:26.157Z,6.80
2018-02-13T18:59:54.927Z,6.17
2018-02-13T19:02:22.690Z,6.50
2018-02-13T19:04:50.583Z,6.70
2018-02-13T19:07:18.323Z,7.70
2018-02-13T19:09:46.021Z,8.10
2018-02-13T19:12:13.798Z,8.03
2018-02-13T19:14:41.388Z,8.90
2018-02-13T19:19:36.456Z,8.50
2018-02-13T19:22:04.416Z,7.47
2018-02-13T19:24:32.001Z,7.80
2018-02-13T19:26:59.611Z,8.20
2018-02-13T19:29:27.200Z,13.20
2018-02-13T19:31:54.998Z,5.73
2018-02-13T19:34:23.014Z,7.90
2018-02-13T19:36:50.756Z,7.20
2018-02-13T19:39:18.338Z,6.20
2018-02-13T19:41:46.090Z,5.90
2018-02-13T19:44:13.761Z,6.60
2018-02-13T19:46:41.352Z,7.17
2018-02-13T19:49:10.259Z,6.17
2018-02-13T19:51:38.108Z,6.33
2018-02-13T19:54:05.697Z,7.50
2018-02-13T19:56:33.238Z,10.10
2018-02-13T19:59:00.802Z,8.60
2018-02-13T20:01:28.422Z,6.80
2018-02-13T20:03:56.620Z,7.53
2018-02-13T20:06:24.396Z,7.27
2018-02-13T20:08:51.989Z,8.00
2018-02-13T20:11:19.647Z,6.70
2018-02-13T20:13:47.422Z,7.53
2018-02-13T20:16:15.098Z,6.50
2018-02-13T20:18:42.687Z,7.00
2018-02-13T20:21:10.401Z,7.20
2018-02-13T20:23:38.466Z,6.70
2018-02-13T20:26:06.025Z,6.37
2018-02-13T20:28:33.600Z,7.30
2018-02-13T20:31:01.458Z,7.97
2018-02-13T20:33:29.237Z,6.67
2018-02-13T20:35:56.913Z,6.90
2018-02-13T20:38:24.447Z,8.13
2018-02-13T20:40:52.265Z,7.30
2018-02-13T20:43:20.732Z,7.60
2018-02-13T20:45:48.286Z,7.77
2018-02-13T20:48:15.887Z,8.17
2018-02-13T20:50:43.466Z,7.00
2018-02-13T20:53:11.020Z,6.83
2018-02-13T20:55:38.949Z,6.73
2018-02-13T20:58:06.487Z,7.53
2018-02-13T21:00:34.038Z,7.50
2018-02-13T21:03:02.109Z,7.13
2018-02-13T21:05:29.655Z,8.70
2018-02-13T21:07:57.217Z,7.47
2018-02-13T21:10:24.767Z,8.60
2018-02-13T21:12:52.324Z,9.27
2018-02-13T21:15:19.862Z,7.97
2018-02-13T21:17:47.399Z,8.00
2018-02-13T21:20:14.951Z,8.17
2018-02-13T21:22:42.498Z,8.47
2018-02-13T21:25:10.059Z,7.60
2018-02-13T21:27:37.620Z,7.20
2018-02-13T21:30:05.195Z,7.73
2018-02-13T21:32:32.819Z,8.10
2018-02-13T21:35:00.357Z,7.87
2018-02-13T21:37:27.880Z,7.00
2018-02-13T21:39:55.439Z,8.27
2018-02-13T21:42:23.311Z,8.90
2018-02-13T21:44:50.863Z,8.37
2018-02-13T21:47:18.431Z,8.87
2018-02-13T21:49:46.001Z,8.27
2018-02-13T21:52:13.538Z,11.70
2018-02-13T21:54:41.078Z,9.37
2018-02-13T21:57:08.621Z,9.10
2018-02-13T21:59:36.977Z,9.90
2018-02-13T22:02:04.502Z,9.37
2018-02-13T22:04:32.024Z,8.77
2018-02-13T22:06:59.582Z,7.87
2018-02-13T22:09:27.120Z,8.03
2018-02-13T22:11:54.639Z,9.07
2018-02-13T22:14:23.156Z,8.43
2018-02-13T22:16:50.675Z,10.83
2018-02-13T22:19:18.223Z,8.07
2018-02-13T22:21:45.845Z,8.30
2018-02-13T22:24:13.350Z,8.60
2018-02-13T22:26:40.868Z,9.57
2018-02-13T22:29:08.431Z,12.07
2018-02-13T22:31:35.942Z,9.27
2018-02-13T22:34:03.545Z,7.63
2018-02-13T22:36:31.105Z,10.07
2018-02-13T22:38:58.670Z,8.90
2018-02-13T22:41:26.255Z,9.80
2018-02-13T22:43:53.887Z,9.50
2018-02-13T22:46:21.461Z,9.57
2018-02-13T22:48:49.027Z,10.57
2018-02-13T22:51:16.599Z,9.90
2018-02-13T22:53:44.128Z,9.00
2018-02-13T22:56:14.203Z,9.60
2018-02-13T22:58:41.818Z,10.33
2018-02-13T23:01:09.523Z,9.53
2018-02-13T23:03:37.160Z,9.67
2018-02-13T23:06:04.772Z,9.70
2018-02-13T23:08:32.338Z,10.97
2018-02-13T23:10:59.901Z,9.73
2018-02-13T23:13:27.475Z,10.23
2018-02-13T23:15:55.055Z,10.90
2018-02-13T23:18:22.567Z,9.37
2018-02-13T23:20:50.109Z,9.80
2018-02-13T23:23:17.669Z,10.87
2018-02-13T23:25:45.239Z,10.13
2018-02-13T23:28:12.758Z,11.27
2018-02-13T23:30:40.327Z,11.97
2018-02-13T23:33:07.861Z,11.37
2018-02-13T23:35:35.398Z,11.80
2018-02-13T23:38:02.956Z,13.50
2018-02-13T23:40:30.489Z,15.40
2018-02-13T23:42:58.045Z,13.60
2018-02-13T23:45:25.600Z,12.20
2018-02-13T23:47:53.174Z,12.43
2018-02-13T23:50:20.846Z,11.03
2018-02-13T23:52:48.410Z,12.57
2018-02-13T23:55:15.954Z,11.57
2018-02-13T23:57:43.500Z,9.60
